createdAt,value
2023-05-05T00:01:43.974Z,13.70
2023-05-05T00:06:45.655Z,13.60
2023-05-05T00:11:47.327Z,13.40
2023-05-05T00:16:49.073Z,13.30
2023-05-05T00:21:50.785Z,13.20
2023-05-05T00:26:52.486Z,13.10
2023-05-05T00:31:54.252Z,12.80
2023-05-05T00:36:56.268Z,12.70
2023-05-05T00:41:59.385Z,12.80
2023-05-05T00:47:01.380Z,12.50
2023-05-05T00:52:04.573Z,12.50
2023-05-05T00:57:06.702Z,12.50
2023-05-05T01:02:09.555Z,12.50
2023-05-05T01:07:41.101Z,12.50
2023-05-05T01:13:23.308Z,12.60
2023-05-05T01:18:31.408Z,12.60
2023-05-05T01:23:52.330Z,12.70
2023-05-05T01:29:16.511Z,12.70
2023-05-05T01:34:24.410Z,12.80
2023-05-05T01:39:31.347Z,12.90
2023-05-05T01:44:36.105Z,12.90
2023-05-05T01:49:38.559Z,13.10
2023-05-05T01:54:42.910Z,13.30
2023-05-05T01:59:44.586Z,13.20
2023-05-05T02:04:48.070Z,13.10
2023-05-05T02:09:50.980Z,13.30
2023-05-05T02:14:53.985Z,13.30
2023-05-05T02:19:58.815Z,13.30
2023-05-05T02:25:00.845Z,13.40
2023-05-05T02:30:08.217Z,13.40
2023-05-05T02:35:26.753Z,13.30
2023-05-05T02:40:31.728Z,13.20
2023-05-05T02:45:34.039Z,13.10
2023-05-05T02:50:36.001Z,13.00
2023-05-05T02:55:52.437Z,12.90
2023-05-05T03:01:04.784Z,12.90
2023-05-05T03:06:19.541Z,12.90
2023-05-05T03:11:35.548Z,13.00
2023-05-05T03:16:42.721Z,13.20
2023-05-05T03:21:45.765Z,13.10
2023-05-05T03:26:49.440Z,13.20
2023-05-05T03:31:54.126Z,13.40
2023-05-05T03:36:56.199Z,13.30
2023-05-05T03:41:58.382Z,13.30
2023-05-05T03:47:04.321Z,13.20
2023-05-05T03:52:09.130Z,13.10
2023-05-05T03:57:11.821Z,12.90
2023-05-05T04:02:13.753Z,12.70
2023-05-05T04:07:15.667Z,12.60
2023-05-05T04:12:18.285Z,12.30
2023-05-05T04:17:20.663Z,12.30
2023-05-05T04:22:23.572Z,12.40
2023-05-05T04:27:26.202Z,12.50
2023-05-05T04:32:28.534Z,12.50
2023-05-05T04:37:30.477Z,12.70
2023-05-05T04:42:33.754Z,12.70
2023-05-05T04:47:40.408Z,12.80
2023-05-05T04:52:42.748Z,13.00
2023-05-05T04:57:44.536Z,12.90
2023-05-05T05:02:46.368Z,12.90
2023-05-05T05:07:48.130Z,16.20
2023-05-05T05:12:49.967Z,20.40
2023-05-05T05:17:51.847Z,21.60
2023-05-05T05:22:53.750Z,23.10
2023-05-05T05:28:08.970Z,23.60
2023-05-05T05:33:14.540Z,23.70
2023-05-05T05:38:17.915Z,21.80
2023-05-05T05:43:20.641Z,23.20
2023-05-05T05:48:24.817Z,23.00
2023-05-05T05:53:27.283Z,23.40
2023-05-05T05:58:29.920Z,24.80
2023-05-05T06:03:32.413Z,24.00
2023-05-05T06:08:34.287Z,25.50
2023-05-05T06:13:36.344Z,25.20
2023-05-05T06:18:38.714Z,27.00
2023-05-05T06:23:40.545Z,27.70
2023-05-05T06:28:42.683Z,28.30
2023-05-05T06:33:44.429Z,28.20
2023-05-05T06:38:46.197Z,28.00
2023-05-05T06:43:48.024Z,26.90
2023-05-05T06:48:50.134Z,27.70
2023-05-05T06:53:51.837Z,27.00
2023-05-05T06:58:53.534Z,25.60
2023-05-05T07:03:55.296Z,27.90
2023-05-05T07:08:57.900Z,29.20
2023-05-05T07:13:59.601Z,25.90
2023-05-05T07:19:01.536Z,25.50
2023-05-05T07:24:03.744Z,28.40
2023-05-05T07:29:07.134Z,29.00
2023-05-05T07:34:08.920Z,28.80
2023-05-05T07:39:11.114Z,28.40
2023-05-05T07:44:13.020Z,27.10
2023-05-05T07:49:15.074Z,26.60
2023-05-05T07:54:17.550Z,24.30
2023-05-05T07:59:19.305Z,25.70
2023-05-05T08:04:21.129Z,27.10
2023-05-05T08:09:22.870Z,28.40
2023-05-05T08:14:24.592Z,28.60
2023-05-05T08:19:29.314Z,25.80
2023-05-05T08:24:32.247Z,26.10
2023-05-05T08:29:33.969Z,26.10
2023-05-05T08:34:35.801Z,26.50
2023-05-05T08:39:37.944Z,26.30
2023-05-05T08:44:39.743Z,25.80
2023-05-05T08:49:46.233Z,26.40
2023-05-05T08:55:09.615Z,27.60
2023-05-05T09:00:12.649Z,27.90
2023-05-05T09:05:14.826Z,27.30
2023-05-05T09:10:16.808Z,28.40
2023-05-05T09:15:18.736Z,27.40
2023-05-05T09:20:20.560Z,28.00
2023-05-05T09:25:22.374Z,27.80
2023-05-05T09:30:25.956Z,28.40
2023-05-05T09:35:28.068Z,29.00
2023-05-05T09:40:48.506Z,29.10
2023-05-05T09:45:51.120Z,30.00
2023-05-05T09:50:53.110Z,30.30
2023-05-05T09:55:56.541Z,28.50
2023-05-05T10:00:59.113Z,28.60
2023-05-05T10:06:02.146Z,29.20
2023-05-05T10:11:06.812Z,29.00
2023-05-05T10:16:09.686Z,28.00
2023-05-05T10:21:13.854Z,26.70
2023-05-05T10:26:18.587Z,26.60
2023-05-05T10:31:39.092Z,26.80
2023-05-05T10:36:41.210Z,28.10
2023-05-05T10:41:43.837Z,26.40
2023-05-05T10:46:46.622Z,27.70
2023-05-05T10:52:13.947Z,28.80
2023-05-05T10:57:18.721Z,27.50
2023-05-05T11:02:30.078Z,28.80
2023-05-05T11:07:32.792Z,28.10
2023-05-05T11:13:02.523Z,27.60
2023-05-05T11:18:07.968Z,26.80
2023-05-05T11:23:10.203Z,28.10
2023-05-05T11:28:16.998Z,27.90
2023-05-05T11:33:29.024Z,27.30
2023-05-05T11:38:42.554Z,27.20
2023-05-05T11:43:44.322Z,27.50
2023-05-05T11:48:47.688Z,27.60
2023-05-05T11:53:50.103Z,27.50
2023-05-05T11:59:10.947Z,27.20
2023-05-05T12:04:17.218Z,26.90
2023-05-05T12:09:20.564Z,26.40
2023-05-05T12:14:23.099Z,26.20
2023-05-05T12:19:30.042Z,26.20
2023-05-05T12:24:31.953Z,26.30
2023-05-05T12:29:33.720Z,26.20
2023-05-05T12:34:35.765Z,26.30
2023-05-05T12:39:37.679Z,26.70
2023-05-05T12:44:40.424Z,26.80
2023-05-05T12:49:50.331Z,26.30
2023-05-05T12:54:56.895Z,26.10
2023-05-05T12:59:58.682Z,26.00
2023-05-05T13:05:00.393Z,25.40
2023-05-05T13:10:10.935Z,25.10
2023-05-05T13:15:13.147Z,24.90
2023-05-05T13:20:15.359Z,24.70
2023-05-05T13:25:17.181Z,24.50
2023-05-05T13:30:20.687Z,24.00
2023-05-05T13:35:22.357Z,22.70
2023-05-05T13:40:25.760Z,21.00
2023-05-05T13:45:27.692Z,20.10
2023-05-05T13:50:29.390Z,19.70
2023-05-05T13:55:31.200Z,19.60
2023-05-05T14:00:34.565Z,19.60
2023-05-05T14:05:37.428Z,19.80
2023-05-05T14:10:40.328Z,19.60
2023-05-05T14:15:42.374Z,19.00
2023-05-05T14:20:44.128Z,19.30
2023-05-05T14:25:45.974Z,19.30
2023-05-05T14:30:47.714Z,19.90
2023-05-05T14:35:49.666Z,20.10
2023-05-05T14:40:51.392Z,20.60
2023-05-05T14:45:53.219Z,20.40
2023-05-05T14:50:54.947Z,20.10
2023-05-05T14:55:56.781Z,20.40
2023-05-05T15:00:58.954Z,19.90
2023-05-05T15:06:00.990Z,19.70
2023-05-05T15:11:02.745Z,19.90
2023-05-05T15:16:04.991Z,19.90
2023-05-05T15:21:06.859Z,19.90
2023-05-05T15:26:08.836Z,20.10
2023-05-05T15:31:10.738Z,20.40
2023-05-05T15:36:12.751Z,20.80
2023-05-05T15:41:14.770Z,21.00
2023-05-05T15:46:16.615Z,20.90
2023-05-05T15:51:18.469Z,21.10
2023-05-05T15:56:20.355Z,21.10
2023-05-05T16:01:22.240Z,21.60
2023-05-05T16:06:23.998Z,22.10
2023-05-05T16:11:26.930Z,21.90
2023-05-05T16:16:28.911Z,22.10
2023-05-05T16:21:31.016Z,22.20
2023-05-05T16:26:35.300Z,21.80
2023-05-05T16:31:37.333Z,21.60
2023-05-05T16:36:39.149Z,21.60
2023-05-05T16:41:41.412Z,21.00
2023-05-05T16:46:43.272Z,21.30
2023-05-05T16:51:45.073Z,20.70
2023-05-05T16:56:46.814Z,20.70
2023-05-05T17:01:48.753Z,20.30
2023-05-05T17:06:50.875Z,20.50
2023-05-05T17:11:52.837Z,20.40
2023-05-05T17:16:54.597Z,18.80
2023-05-05T17:21:56.779Z,17.90
2023-05-05T17:26:59.531Z,17.70
2023-05-05T17:32:01.303Z,17.60
2023-05-05T17:37:03.283Z,17.20
2023-05-05T17:42:05.220Z,16.50
2023-05-05T17:47:07.838Z,16.20
2023-05-05T17:52:09.618Z,16.30
2023-05-05T17:57:12.596Z,16.40
2023-05-05T18:02:14.469Z,16.50
2023-05-05T18:07:16.432Z,16.50
2023-05-05T18:12:18.143Z,16.50
2023-05-05T18:17:19.908Z,16.50
2023-05-05T18:22:21.834Z,16.20
2023-05-05T18:27:26.464Z,16.30
2023-05-05T18:32:28.210Z,16.50
2023-05-05T18:37:30.035Z,16.30
2023-05-05T18:42:31.946Z,16.40
2023-05-05T18:47:33.822Z,16.50
2023-05-05T18:52:35.766Z,16.50
2023-05-05T18:57:37.468Z,16.50
2023-05-05T19:02:39.263Z,16.40
2023-05-05T19:07:41.002Z,16.40
2023-05-05T19:12:42.734Z,16.30
2023-05-05T19:17:44.564Z,16.30
2023-05-05T19:22:46.714Z,16.40
2023-05-05T19:27:48.395Z,16.10
2023-05-05T19:32:50.193Z,16.00
2023-05-05T19:37:52.051Z,15.80
2023-05-05T19:42:53.816Z,15.60
2023-05-05T19:47:55.542Z,15.80
2023-05-05T19:52:57.798Z,15.80
2023-05-05T19:57:59.532Z,15.80
2023-05-05T20:03:01.980Z,15.50
2023-05-05T20:08:04.079Z,15.40
2023-05-05T20:13:06.212Z,15.70
2023-05-05T20:18:08.133Z,15.60
2023-05-05T20:23:10.052Z,15.60
2023-05-05T20:28:11.919Z,15.70
2023-05-05T20:33:13.875Z,15.60
2023-05-05T20:38:15.779Z,15.70
2023-05-05T20:43:18.047Z,15.70
2023-05-05T20:48:19.902Z,15.70
2023-05-05T20:53:24.249Z,15.70
2023-05-05T20:58:26.100Z,15.50
2023-05-05T21:03:27.869Z,15.40
2023-05-05T21:08:30.346Z,15.30
2023-05-05T21:13:32.097Z,15.60
2023-05-05T21:18:33.799Z,15.60
2023-05-05T21:23:35.495Z,15.40
2023-05-05T21:28:37.235Z,15.40
2023-05-05T21:33:38.969Z,15.30
2023-05-05T21:38:41.093Z,15.40
2023-05-05T21:43:42.817Z,15.20
2023-05-05T21:48:47.294Z,15.20
2023-05-05T21:53:49.036Z,15.20
2023-05-05T21:58:50.771Z,15.20
2023-05-05T22:03:52.662Z,15.10
2023-05-05T22:08:54.643Z,15.00
2023-05-05T22:13:56.484Z,14.90
2023-05-05T22:18:58.257Z,14.80
2023-05-05T22:23:59.993Z,14.60
2023-05-05T22:29:01.752Z,14.70
2023-05-05T22:34:04.069Z,14.70
2023-05-05T22:39:06.401Z,14.70
2023-05-05T22:44:08.412Z,14.40
2023-05-05T22:49:10.383Z,14.30
2023-05-05T22:54:12.319Z,14.00
2023-05-05T22:59:14.217Z,14.30
2023-05-05T23:04:16.516Z,14.20
2023-05-05T23:09:18.318Z,13.90
2023-05-05T23:14:20.030Z,13.80
2023-05-05T23:19:21.771Z,13.80
2023-05-05T23:24:23.502Z,14.30
2023-05-05T23:29:25.393Z,14.30
2023-05-05T23:34:27.148Z,14.50
2023-05-05T23:39:29.138Z,14.60
2023-05-05T23:44:30.889Z,14.50
2023-05-05T23:49:32.649Z,14.70
2023-05-05T23:54:34.380Z,14.50
2023-05-05T23:59:36.134Z,14.60
